createdAt,value
2018-11-03T00:02:17.832Z,84.10
2018-11-03T00:12:22.486Z,83.90
2018-11-03T00:22:27.049Z,84.30
2018-11-03T00:32:31.849Z,84.00
2018-11-03T00:42:36.426Z,83.70
2018-11-03T00:52:41.237Z,83.40
2018-11-03T01:02:46.954Z,83.50
2018-11-03T01:12:51.434Z,84.20
2018-11-03T01:22:56.275Z,84.60
2018-11-03T01:33:01.022Z,85.90
2018-11-03T01:43:05.906Z,84.30
2018-11-03T01:53:10.454Z,83.70
2018-11-03T02:03:15.049Z,83.70
2018-11-03T02:13:19.708Z,83.80
2018-11-03T02:23:24.201Z,83.90
2018-11-03T02:33:28.879Z,83.10
2018-11-03T02:43:33.308Z,83.40
2018-11-03T02:53:37.908Z,83.40
2018-11-03T03:03:42.568Z,83.90
2018-11-03T03:13:47.297Z,84.60
2018-11-03T03:23:51.808Z,84.90
2018-11-03T03:33:56.283Z,86.00
2018-11-03T03:44:00.877Z,84.90
2018-11-03T03:54:05.627Z,85.00
2018-11-03T04:04:10.078Z,84.60
2018-11-03T04:14:14.591Z,83.70
2018-11-03T04:24:19.394Z,83.80
2018-11-03T04:34:23.965Z,83.10
2018-11-03T04:44:28.489Z,83.20
2018-11-03T04:54:32.962Z,83.70
2018-11-03T05:04:37.430Z,83.60
2018-11-03T05:14:42.019Z,83.40
2018-11-03T05:24:46.702Z,84.00
2018-11-03T05:34:51.160Z,85.40
2018-11-03T05:44:59.114Z,84.70
2018-11-03T05:55:03.791Z,84.70
2018-11-03T06:05:08.354Z,85.10
2018-11-03T06:15:13.302Z,87.30
2018-11-03T06:25:18.362Z,86.70
2018-11-03T06:35:22.963Z,88.30
2018-11-03T06:45:27.576Z,89.20
2018-11-03T06:55:32.147Z,89.20
2018-11-03T07:05:36.848Z,90.60
2018-11-03T07:15:41.218Z,91.20
2018-11-03T07:25:46.738Z,92.20
2018-11-03T07:35:51.362Z,91.60
2018-11-03T07:45:55.930Z,92.70
2018-11-03T07:56:00.627Z,93.20
2018-11-03T08:06:05.162Z,93.60
2018-11-03T08:16:09.664Z,94.30
2018-11-03T08:26:14.218Z,93.90
2018-11-03T08:36:19.118Z,93.60
2018-11-03T08:46:23.694Z,94.10
2018-11-03T08:56:28.247Z,94.30
2018-11-03T09:06:32.859Z,94.70
2018-11-03T09:16:37.394Z,94.60
2018-11-03T09:26:42.042Z,94.00
2018-11-03T09:36:46.596Z,94.00
2018-11-03T09:46:51.221Z,95.30
2018-11-03T09:56:55.738Z,94.70
2018-11-03T10:07:00.263Z,95.00
2018-11-03T10:17:05.026Z,94.90
2018-11-03T10:27:09.389Z,95.00
2018-11-03T10:37:13.920Z,94.30
2018-11-03T10:47:18.250Z,94.40
2018-11-03T10:57:22.630Z,94.60
2018-11-03T11:07:32.141Z,94.50
2018-11-03T11:17:36.458Z,94.70
2018-11-03T11:27:40.843Z,95.40
2018-11-03T11:37:45.129Z,95.50
2018-11-03T11:47:49.449Z,94.80
2018-11-03T11:57:53.746Z,94.70
2018-11-03T12:07:58.940Z,94.20
2018-11-03T12:18:03.264Z,94.20
2018-11-03T12:28:07.589Z,93.90
2018-11-03T12:38:11.881Z,93.70
2018-11-03T12:48:16.310Z,93.80
2018-11-03T12:58:20.567Z,94.10
2018-11-03T13:08:24.899Z,94.30
2018-11-03T13:18:29.404Z,94.70
2018-11-03T13:28:33.887Z,96.00
2018-11-03T13:38:38.452Z,95.40
2018-11-03T13:48:43.169Z,95.70
2018-11-03T13:58:47.798Z,95.40
2018-11-03T14:08:52.594Z,95.70
2018-11-03T14:18:57.383Z,95.50
2018-11-03T14:29:02.188Z,95.80
2018-11-03T14:39:08.382Z,95.20
2018-11-03T14:49:13.158Z,94.90
2018-11-03T14:59:17.771Z,95.10
2018-11-03T15:09:22.269Z,94.70
2018-11-03T15:19:26.943Z,94.50
2018-11-03T15:29:31.640Z,94.50
2018-11-03T15:39:36.322Z,94.50
2018-11-03T15:49:41.034Z,94.30
2018-11-03T15:59:45.571Z,94.60
2018-11-03T16:09:49.918Z,94.20
2018-11-03T16:19:54.522Z,94.40
2018-11-03T16:29:59.181Z,94.30
2018-11-03T16:40:15.583Z,94.50
2018-11-03T16:50:19.879Z,94.60
2018-11-03T17:00:24.248Z,94.50
2018-11-03T17:10:28.550Z,94.40
2018-11-03T17:20:32.910Z,94.20
2018-11-03T17:30:37.227Z,94.50
2018-11-03T17:40:41.546Z,94.60
2018-11-03T17:50:45.959Z,94.20
2018-11-03T18:00:50.424Z,94.00
2018-11-03T18:10:54.654Z,94.10
2018-11-03T18:20:58.980Z,94.80
2018-11-03T18:31:03.382Z,94.60
2018-11-03T18:41:07.683Z,93.90
2018-11-03T18:51:12.016Z,94.00
2018-11-03T19:01:16.378Z,93.70
2018-11-03T19:11:20.647Z,93.50
2018-11-03T19:21:24.978Z,93.50
2018-11-03T19:31:29.352Z,93.70
2018-11-03T19:41:33.728Z,93.60
2018-11-03T19:51:38.568Z,93.60
2018-11-03T20:01:42.912Z,93.70
2018-11-03T20:11:47.650Z,93.90
2018-11-03T20:21:52.328Z,94.30
2018-11-03T20:31:56.835Z,94.20
2018-11-03T20:42:01.324Z,94.40
2018-11-03T20:52:06.352Z,94.10
2018-11-03T21:02:11.092Z,94.10
2018-11-03T21:12:15.705Z,93.70
2018-11-03T21:22:20.274Z,93.70
2018-11-03T21:32:25.388Z,93.50
2018-11-03T21:42:30.078Z,93.60
2018-11-03T21:52:34.675Z,93.80
2018-11-03T22:02:39.166Z,93.70
2018-11-03T22:12:44.099Z,93.40
2018-11-03T22:22:48.602Z,93.60
2018-11-03T22:32:53.316Z,93.80
2018-11-03T22:42:57.913Z,93.50
2018-11-03T22:53:02.591Z,93.70
2018-11-03T23:03:07.775Z,93.60
2018-11-03T23:13:12.353Z,93.50
2018-11-03T23:23:16.671Z,93.50
2018-11-03T23:33:22.086Z,93.70
2018-11-03T23:43:26.784Z,93.70
2018-11-03T23:53:31.238Z,93.70
